| time (UTC) | temp F | wind direction | speed knots | gust knots | rain 1hr in | rain 24hr in | rain mn in | humidity % | barometer mb |
| 20260503215811 | 63 | 211 | 8.7 | 20.9 | 0.00 | 0.00 | 0.00 | 43 | 1008.3 |
| 20260503215321 | 62 | 219 | 10.4 | 21.7 | 0.00 | 0.00 | 0.00 | 43 | 1008.3 |
| 20260503214840 | 62 | 207 | 11.3 | 21.7 | 0.00 | 0.00 | 0.00 | 43 | 1008.5 |
| 20260503214335 | 61 | 192 | 9.6 | 20.9 | 0.00 | 0.00 | 0.00 | 43 | 1008.5 |
| 20260503213847 | 62 | 240 | 10.4 | 20.0 | 0.00 | 0.00 | 0.00 | 44 | 1008.5 |
| 20260503213331 | 62 | 209 | 7.8 | 16.5 | 0.00 | 0.00 | 0.00 | 43 | 1008.5 |
| 20260503212820 | 62 | 203 | 11.3 | 20.9 | 0.00 | 0.00 | 0.00 | 43 | 1008.5 |
| 20260503212331 | 62 | 221 | 8.7 | 21.7 | 0.00 | 0.00 | 0.00 | 42 | 1008.5 |
| 20260503211827 | 63 | 218 | 13.0 | 21.7 | 0.00 | 0.00 | 0.00 | 41 | 1008.5 |
| 20260503211317 | 63 | 192 | 11.3 | 24.3 | 0.00 | 0.00 | 0.00 | 41 | 1008.5 |
| 20260503210858 | 63 | 200 | 14.8 | 24.3 | 0.00 | 0.00 | 0.00 | 42 | 1008.5 |
| 20260503210323 | 62 | 206 | 13.9 | 24.3 | 0.00 | 0.00 | 0.00 | 41 | 1008.7 |
| 20260503205838 | 62 | 242 | 13.9 | 24.3 | 0.00 | 0.00 | 0.00 | 41 | 1008.7 |
| 20260503205323 | 63 | 202 | 12.2 | 26.1 | 0.00 | 0.00 | 0.00 | 40 | 1008.7 |
| 20260503204814 | 62 | 219 | 12.2 | 26.9 | 0.00 | 0.00 | 0.00 | 40 | 1008.9 |
| 20260503204329 | 63 | 236 | 14.8 | 26.9 | 0.00 | 0.00 | 0.00 | 39 | 1008.9 |
| 20260503203819 | 63 | 197 | 15.6 | 27.8 | 0.00 | 0.00 | 0.00 | 39 | 1008.9 |
| 20260503203322 | 63 | 202 | 13.9 | 27.8 | 0.00 | 0.00 | 0.00 | 39 | 1009.0 |
| 20260503202815 | 63 | 217 | 13.9 | 23.5 | 0.00 | 0.00 | 0.00 | 38 | 1009.0 |
| 20260503202334 | 63 | 201 | 12.2 | 23.5 | 0.00 | 0.00 | 0.00 | 38 | 1009.0 |
| 20260503201838 | 63 | 207 | 12.2 | 28.7 | 0.00 | 0.00 | 0.00 | 39 | 1009.2 |
| 20260503201330 | 63 | 224 | 7.8 | 24.3 | 0.00 | 0.00 | 0.00 | 40 | 1009.2 |
| 20260503200822 | 63 | 207 | 13.0 | 24.3 | 0.00 | 0.00 | 0.00 | 38 | 1009.2 |
| 20260503200328 | 63 | 223 | 14.8 | 23.5 | 0.00 | 0.00 | 0.00 | 38 | 1009.2 |
| 20260503195813 | 63 | 225 | 13.9 | 25.2 | 0.00 | 0.00 | 0.00 | 39 | 1009.2 |
| 20260503195320 | 63 | 199 | 10.4 | 25.2 | 0.00 | 0.00 | 0.00 | 40 | 1009.2 |
| 20260503194828 | 63 | 201 | 9.6 | 23.5 | 0.00 | 0.00 | 0.00 | 39 | 1009.4 |
| 20260503194321 | 63 | 192 | 9.6 | 20.0 | 0.00 | 0.00 | 0.00 | 39 | 1009.4 |
| 20260503193841 | 63 | 226 | 12.2 | 22.6 | 0.00 | 0.00 | 0.00 | 38 | 1009.4 |
| 20260503193329 | 63 | 204 | 13.9 | 22.6 | 0.00 | 0.00 | 0.00 | 39 | 1009.6 |
| 20260503192838 | 63 | 244 | 11.3 | 22.6 | 0.00 | 0.00 | 0.00 | 38 | 1009.6 |
| 20260503192327 | 63 | 198 | 11.3 | 23.5 | 0.00 | 0.00 | 0.00 | 38 | 1009.6 |
| 20260503191819 | 62 | 196 | 13.0 | 23.5 | 0.00 | 0.00 | 0.00 | 39 | 1009.8 |
| 20260503191341 | 62 | 202 | 12.2 | 21.7 | 0.00 | 0.00 | 0.00 | 39 | 1009.8 |
| 20260503190843 | 63 | 215 | 13.9 | 22.6 | 0.00 | 0.00 | 0.00 | 38 | 1009.8 |
| 20260503190326 | 63 | 264 | 13.0 | 24.3 | 0.00 | 0.00 | 0.00 | 39 | 1010.0 |
| 20260503185834 | 63 | 202 | 13.9 | 24.3 | 0.00 | 0.00 | 0.00 | 39 | 1010.0 |
| 20260503185323 | 63 | 213 | 10.4 | 20.9 | 0.00 | 0.00 | 0.00 | 39 | 1010.0 |
| 20260503184824 | 63 | 229 | 13.0 | 23.5 | 0.00 | 0.00 | 0.00 | 39 | 1010.3 |
| 20260503184313 | 63 | 228 | 7.0 | 23.5 | 0.00 | 0.00 | 0.00 | 39 | 1010.3 |
| 20260503183826 | 63 | 189 | 12.2 | 28.7 | 0.00 | 0.00 | 0.00 | 39 | 1010.3 |
| 20260503183352 | 62 | 211 | 7.0 | 28.7 | 0.00 | 0.00 | 0.00 | 40 | 1010.4 |
| 20260503182822 | 62 | 215 | 12.2 | 22.6 | 0.00 | 0.00 | 0.00 | 38 | 1010.4 |
| 20260503182340 | 62 | 197 | 14.8 | 22.6 | 0.00 | 0.00 | 0.00 | 37 | 1010.4 |
| 20260503181828 | 63 | 190 | 8.7 | 20.9 | 0.00 | 0.00 | 0.00 | 40 | 1010.6 |
| 20260503181321 | 63 | 213 | 9.6 | 20.9 | 0.00 | 0.00 | 0.00 | 38 | 1010.6 |
| 20260503180813 | 62 | 219 | 6.1 | 20.0 | 0.00 | 0.00 | 0.00 | 41 | 1010.6 |
| 20260503180325 | 62 | 252 | 8.7 | 22.6 | 0.00 | 0.00 | 0.00 | 38 | 1010.8 |
| 20260503175816 | 62 | 206 | 12.2 | 24.3 | 0.00 | 0.00 | 0.00 | 40 | 1010.8 |
| 20260503175334 | 62 | 199 | 13.0 | 22.6 | 0.00 | 0.00 | 0.00 | 39 | 1010.8 |
| 20260503174838 | 62 | 240 | 13.0 | 23.5 | 0.00 | 0.00 | 0.00 | 39 | 1011.0 |
| 20260503174322 | 61 | 207 | 11.3 | 20.0 | 0.00 | 0.00 | 0.00 | 41 | 1011.0 |
| 20260503173851 | 61 | 200 | 10.4 | 24.3 | 0.00 | 0.00 | 0.00 | 40 | 1011.0 |
| 20260503173323 | 61 | 184 | 14.8 | 25.2 | 0.00 | 0.00 | 0.00 | 38 | 1011.2 |
| 20260503172816 | 61 | 199 | 9.6 | 19.1 | 0.00 | 0.00 | 0.00 | 39 | 1011.2 |
| 20260503172325 | 61 | 227 | 13.0 | 19.1 | 0.00 | 0.00 | 0.00 | 42 | 1011.2 |
| 20260503171835 | 60 | 200 | 9.6 | 16.5 | 0.00 | 0.00 | 0.00 | 45 | 1011.4 |
| 20260503171325 | 60 | 207 | 7.0 | 20.0 | 0.00 | 0.00 | 0.00 | 44 | 1011.4 |
| 20260503170843 | 60 | 211 | 9.6 | 20.0 | 0.00 | 0.00 | 0.00 | 43 | 1011.4 |
| 20260503170330 | 61 | 219 | 7.8 | 19.1 | 0.00 | 0.00 | 0.00 | 43 | 1011.5 |
| 20260503150815 | 56 | 234 | 7.0 | 15.6 | 0.00 | 0.00 | 0.00 | 51 | 1012.5 |
| 20260503150332 | 56 | 242 | 8.7 | 13.9 | 0.00 | 0.00 | 0.00 | 51 | 1012.6 |
| 20260503140315 | 51 | 234 | 7.0 | 13.9 | 0.00 | 0.00 | 0.00 | 59 | 1013.0 |
| 20260503131346 | 47 | 223 | 4.3 | 16.5 | 0.00 | 0.00 | 0.00 | 62 | 1013.2 |
| 20260503130833 | 47 | 254 | 8.7 | 13.9 | 0.00 | 0.00 | 0.00 | 61 | 1013.2 |
| 20260503130319 | 47 | 207 | 7.0 | 13.0 | 0.00 | 0.00 | 0.00 | 62 | 1013.2 |
| 20260503110817 | 37 | 198 | 0.0 | 1.7 | 0.00 | 0.00 | 0.00 | 74 | 1013.0 |
| 20260503110326 | 37 | 246 | 0.0 | 4.3 | 0.00 | 0.00 | 0.00 | 74 | 1013.0 |
| 20260503090330 | 37 | 263 | 0.0 | 0.0 | 0.00 | 0.00 | 0.00 | 75 | 1013.4 |
| 20260503081338 | 37 | 263 | 0.0 | 0.0 | 0.00 | 0.00 | 0.00 | 77 | 1013.5 |
| 20260503080834 | 37 | 263 | 0.0 | 0.0 | 0.00 | 0.00 | 0.00 | 77 | 1013.5 |
| 20260503080328 | 37 | 263 | 0.0 | 0.0 | 0.00 | 0.00 | 0.00 | 77 | 1013.5 |
| 20260503072845 | 37 | 263 | 0.0 | 0.0 | 0.00 | 0.00 | 0.00 | 77 | 1013.5 |
| 20260503072331 | 38 | 263 | 0.0 | 0.0 | 0.00 | 0.00 | 0.00 | 77 | 1013.5 |
| 20260503071824 | 38 | 263 | 0.0 | 0.0 | 0.00 | 0.00 | 0.00 | 77 | 1013.6 |
| 20260503071333 | 38 | 263 | 0.0 | 0.0 | 0.00 | 0.00 | 0.00 | 77 | 1013.6 |
| 20260503070826 | 38 | 263 | 0.0 | 0.0 | 0.00 | 0.00 | 0.00 | 76 | 1013.6 |
| 20260503070345 | 38 | 263 | 0.0 | 0.0 | 0.00 | 0.00 | 0.00 | 76 | 1013.6 |
| 20260503060340 | 39 | 263 | 0.0 | 0.0 | 0.00 | 0.00 | 0.00 | 75 | 1014.0 |
| 20260503054825 | 39 | 263 | 0.0 | 0.0 | 0.00 | 0.00 | 0.00 | 75 | 1014.1 |
| 20260503054330 | 39 | 263 | 0.0 | 0.0 | 0.00 | 0.00 | 0.00 | 74 | 1014.1 |
| 20260503053815 | 39 | 263 | 0.0 | 0.0 | 0.00 | 0.00 | 0.00 | 74 | 1014.1 |
| 20260503053321 | 40 | 263 | 0.0 | 0.0 | 0.00 | 0.00 | 0.00 | 74 | 1014.1 |
| 20260503052905 | 40 | 263 | 0.0 | 0.0 | 0.00 | 0.00 | 0.00 | 74 | 1014.1 |
| 20260503052334 | 40 | 263 | 0.0 | 0.0 | 0.00 | 0.00 | 0.00 | 74 | 1014.1 |
| 20260503051838 | 40 | 263 | 0.0 | 0.0 | 0.00 | 0.00 | 0.00 | 74 | 1014.2 |
| 20260503051330 | 40 | 263 | 0.0 | 0.0 | 0.00 | 0.00 | 0.00 | 74 | 1014.2 |
| 20260503050817 | 40 | 263 | 0.0 | 0.0 | 0.00 | 0.00 | 0.00 | 73 | 1014.2 |
| 20260503050327 | 40 | 263 | 0.0 | 0.0 | 0.00 | 0.00 | 0.00 | 73 | 1014.2 |
| 20260503045832 | 40 | 263 | 0.0 | 0.0 | 0.00 | 0.00 | 0.00 | 73 | 1014.2 |
| 20260503045335 | 40 | 263 | 0.0 | 0.0 | 0.00 | 0.00 | 0.00 | 72 | 1014.2 |
| 20260503044828 | 40 | 263 | 0.0 | 0.0 | 0.00 | 0.00 | 0.00 | 72 | 1014.1 |
| 20260503044326 | 41 | 263 | 0.0 | 0.0 | 0.00 | 0.00 | 0.00 | 72 | 1014.1 |
| 20260503043823 | 41 | 263 | 0.0 | 0.0 | 0.00 | 0.00 | 0.00 | 72 | 1014.1 |
| 20260503043344 | 41 | 263 | 0.0 | 0.0 | 0.00 | 0.00 | 0.00 | 72 | 1014.1 |
| 20260503042833 | 41 | 263 | 0.0 | 0.0 | 0.00 | 0.00 | 0.00 | 71 | 1014.1 |
| 20260503042337 | 41 | 263 | 0.0 | 0.0 | 0.00 | 0.00 | 0.00 | 71 | 1014.1 |
| 20260503041825 | 41 | 263 | 0.0 | 0.0 | 0.00 | 0.00 | 0.00 | 70 | 1014.2 |
| 20260503041338 | 42 | 263 | 0.0 | 0.0 | 0.00 | 0.00 | 0.00 | 70 | 1014.2 |
| 20260503040840 | 42 | 263 | 0.0 | 0.0 | 0.00 | 0.00 | 0.00 | 69 | 1014.2 |
| 20260503040358 | 42 | 263 | 0.0 | 0.0 | 0.00 | 0.00 | 0.00 | 69 | 1014.2 |
| 20260503035846 | 42 | 263 | 0.0 | 0.0 | 0.00 | 0.00 | 0.00 | 68 | 1014.2 |
| 20260503035313 | 42 | 263 | 0.0 | 0.0 | 0.00 | 0.00 | 0.00 | 68 | 1014.2 |
| 20260503034855 | 42 | 263 | 0.0 | 0.0 | 0.00 | 0.00 | 0.00 | 67 | 1014.3 |
| 20260503034344 | 42 | 263 | 0.0 | 0.0 | 0.00 | 0.00 | 0.00 | 67 | 1014.3 |
| 20260503033815 | 43 | 263 | 0.0 | 0.0 | 0.00 | 0.00 | 0.00 | 67 | 1014.3 |
| 20260503033324 | 43 | 263 | 0.0 | 0.0 | 0.00 | 0.00 | 0.00 | 66 | 1014.4 |
| 20260503032819 | 43 | 263 | 0.0 | 0.0 | 0.00 | 0.00 | 0.00 | 65 | 1014.4 |
| 20260503032330 | 43 | 263 | 0.0 | 0.0 | 0.00 | 0.00 | 0.00 | 65 | 1014.4 |
| 20260503031842 | 43 | 263 | 0.0 | 0.0 | 0.00 | 0.00 | 0.00 | 64 | 1014.4 |
| 20260503031338 | 43 | 263 | 0.0 | 0.0 | 0.00 | 0.00 | 0.00 | 64 | 1014.4 |
| 20260503030826 | 43 | 263 | 0.0 | 0.0 | 0.00 | 0.00 | 0.00 | 64 | 1014.4 |
| 20260503030332 | 43 | 263 | 0.0 | 0.0 | 0.00 | 0.00 | 0.00 | 64 | 1014.4 |
| 20260503025822 | 43 | 263 | 0.0 | 0.0 | 0.00 | 0.00 | 0.00 | 64 | 1014.4 |
| 20260503025332 | 43 | 263 | 0.0 | 0.0 | 0.00 | 0.00 | 0.00 | 65 | 1014.4 |
| 20260503024819 | 43 | 263 | 0.0 | 0.0 | 0.00 | 0.00 | 0.00 | 64 | 1014.5 |
| 20260503024327 | 43 | 263 | 0.0 | 0.0 | 0.00 | 0.00 | 0.00 | 65 | 1014.5 |
| 20260503023813 | 43 | 263 | 0.0 | 0.0 | 0.00 | 0.00 | 0.00 | 65 | 1014.5 |
| 20260503023334 | 43 | 263 | 0.0 | 0.0 | 0.00 | 0.00 | 0.00 | 65 | 1014.5 |
| 20260503022841 | 43 | 263 | 0.0 | 0.0 | 0.00 | 0.00 | 0.00 | 64 | 1014.5 |
| 20260503022315 | 44 | 263 | 0.0 | 0.0 | 0.00 | 0.00 | 0.00 | 64 | 1014.5 |
| 20260503021829 | 44 | 263 | 0.0 | 0.0 | 0.00 | 0.00 | 0.00 | 63 | 1014.3 |
| 20260503021329 | 44 | 263 | 0.0 | 0.0 | 0.00 | 0.00 | 0.00 | 62 | 1014.3 |
| 20260503020816 | 44 | 263 | 0.0 | 0.0 | 0.00 | 0.00 | 0.00 | 63 | 1014.3 |
| 20260503020328 | 44 | 263 | 0.0 | 0.0 | 0.00 | 0.00 | 0.00 | 62 | 1014.2 |
| 20260503015821 | 45 | 263 | 0.0 | 0.0 | 0.00 | 0.00 | 0.00 | 61 | 1014.2 |
| 20260503015342 | 45 | 263 | 0.0 | 0.0 | 0.00 | 0.00 | 0.00 | 60 | 1014.2 |
| 20260503014831 | 45 | 263 | 0.0 | 0.0 | 0.00 | 0.00 | 0.00 | 60 | 1014.2 |
| 20260503014326 | 45 | 263 | 0.0 | 0.0 | 0.00 | 0.00 | 0.00 | 59 | 1014.2 |
| 20260503013816 | 46 | 263 | 0.0 | 0.0 | 0.00 | 0.00 | 0.00 | 58 | 1014.2 |
| 20260503013322 | 46 | 263 | 0.0 | 0.0 | 0.00 | 0.00 | 0.00 | 58 | 1014.2 |
| 20260503012832 | 46 | 263 | 0.0 | 0.0 | 0.00 | 0.00 | 0.00 | 57 | 1014.2 |
| 20260503012326 | 46 | 263 | 0.0 | 0.0 | 0.00 | 0.00 | 0.00 | 54 | 1014.2 |
| 20260503011815 | 46 | 263 | 0.0 | 0.0 | 0.00 | 0.00 | 0.00 | 54 | 1014.2 |
| 20260503011337 | 46 | 263 | 0.0 | 0.0 | 0.00 | 0.00 | 0.00 | 53 | 1014.2 |
| 20260503010830 | 46 | 263 | 0.0 | 0.0 | 0.00 | 0.00 | 0.00 | 52 | 1014.2 |
| 20260503010323 | 46 | 263 | 0.0 | 0.0 | 0.00 | 0.00 | 0.00 | 52 | 1014.1 |
| 20260503005844 | 46 | 263 | 0.0 | 0.0 | 0.00 | 0.00 | 0.00 | 52 | 1014.1 |
| 20260503005330 | 47 | 263 | 0.0 | 0.0 | 0.00 | 0.00 | 0.00 | 51 | 1014.1 |
| 20260503004818 | 47 | 263 | 0.0 | 0.0 | 0.00 | 0.00 | 0.00 | 51 | 1014.1 |
| 20260503004325 | 47 | 263 | 0.0 | 0.0 | 0.00 | 0.00 | 0.00 | 50 | 1014.1 |
| 20260503003817 | 47 | 263 | 0.0 | 3.5 | 0.00 | 0.00 | 0.00 | 49 | 1014.1 |
| 20260503003332 | 47 | 263 | 0.9 | 3.5 | 0.00 | 0.00 | 0.00 | 48 | 1014.0 |
| 20260503002823 | 47 | 263 | 0.0 | 0.0 | 0.00 | 0.00 | 0.00 | 48 | 1014.0 |
| 20260503002333 | 48 | 263 | 0.0 | 0.0 | 0.00 | 0.00 | 0.00 | 49 | 1014.0 |
| 20260503001820 | 48 | 263 | 0.0 | 0.0 | 0.00 | 0.00 | 0.00 | 48 | 1014.0 |
| 20260503001313 | 48 | 263 | 0.0 | 0.0 | 0.00 | 0.00 | 0.00 | 47 | 1014.0 |
| 20260503000839 | 48 | 263 | 0.0 | 0.0 | 0.00 | 0.00 | 0.00 | 47 | 1014.0 |
| 20260503000325 | 48 | 263 | 0.0 | 0.0 | 0.00 | 0.01 | 0.00 | 48 | 1014.0 |
| 20260502235841 | 47 | 263 | 0.0 | 0.0 | 0.00 | 0.01 | 0.00 | 48 | 1014.0 |
| 20260502235328 | 47 | 263 | 0.0 | 1.7 | 0.00 | 0.01 | 0.00 | 48 | 1014.0 |
| 20260502234814 | 48 | 263 | 0.0 | 4.3 | 0.00 | 0.01 | 0.00 | 48 | 1014.0 |
| 20260502234324 | 48 | 263 | 0.9 | 6.1 | 0.00 | 0.01 | 0.00 | 47 | 1014.0 |
| 20260502233834 | 47 | 263 | 2.6 | 7.0 | 0.00 | 0.01 | 0.00 | 47 | 1014.0 |
| 20260502233349 | 47 | 258 | 3.5 | 7.0 | 0.00 | 0.01 | 0.00 | 46 | 1014.0 |
| 20260502232820 | 47 | 286 | 0.0 | 5.2 | 0.00 | 0.01 | 0.00 | 48 | 1014.0 |
| 20260502232318 | 47 | 286 | 0.0 | 7.8 | 0.00 | 0.01 | 0.00 | 47 | 1014.0 |
| 20260502231824 | 48 | 292 | 1.7 | 12.2 | 0.00 | 0.01 | 0.00 | 47 | 1014.1 |
| 20260502231339 | 48 | 257 | 5.2 | 12.2 | 0.00 | 0.01 | 0.00 | 46 | 1014.1 |
| 20260502230815 | 48 | 258 | 4.3 | 8.7 | 0.00 | 0.01 | 0.00 | 46 | 1014.1 |
| 20260502230341 | 48 | 251 | 2.6 | 8.7 | 0.00 | 0.01 | 0.00 | 46 | 1014.0 |
| 20260502225833 | 48 | 261 | 2.6 | 10.4 | 0.00 | 0.01 | 0.00 | 46 | 1014.0 |
| 20260502225344 | 49 | 257 | 1.7 | 7.8 | 0.00 | 0.01 | 0.00 | 46 | 1014.0 |
| 20260502224814 | 49 | 282 | 0.0 | 4.3 | 0.00 | 0.01 | 0.00 | 47 | 1014.1 |
| 20260502224329 | 49 | 283 | 0.0 | 6.1 | 0.00 | 0.01 | 0.00 | 47 | 1014.1 |
| 20260502223819 | 48 | 283 | 0.0 | 6.1 | 0.00 | 0.01 | 0.00 | 46 | 1014.1 |
| 20260502223329 | 48 | 294 | 0.9 | 7.8 | 0.00 | 0.01 | 0.00 | 47 | 1014.1 |
| 20260502222818 | 48 | 281 | 1.7 | 7.0 | 0.00 | 0.01 | 0.00 | 47 | 1014.1 |
| 20260502222314 | 48 | 283 | 1.7 | 7.0 | 0.00 | 0.01 | 0.00 | 47 | 1014.1 |
| 20260502221828 | 48 | 270 | 1.7 | 9.6 | 0.00 | 0.01 | 0.00 | 48 | 1014.2 |
| 20260502221348 | 48 | 273 | 6.1 | 9.6 | 0.00 | 0.01 | 0.00 | 46 | 1014.2 |
| 20260502220825 | 48 | 271 | 1.7 | 8.7 | 0.00 | 0.01 | 0.00 | 46 | 1014.2 |
| 20260502220329 | 48 | 247 | 1.7 | 8.7 | 0.00 | 0.01 | 0.00 | 47 | 1014.1 |